Hayase Maru — JD2583 — position and weather

sailwx.info

Track history (hours):
 
Tides and Currents Weather Stations Pressure Air Temp Water Temp Dewpoint Dewpoint Depression Visibility Wind Speed Wind Dir Waves Ship Positions

Hayase Maru

Last reported at 2015-Jul-29 10:33 UTC. Time now 2015-Jul-31 11:25 UTC.
Position N 34°37' E 134°57'.

Length 73 m; draft 4 m.

Type: Ship. MMSI: 431000395.

Date/timePositionNaut miles runAvg speedWind from/ knotsBaromVisibWave heightAir tempDewpointWater temp
2015-Jul-29 10:33N 34°37' E 134°57'1313.4
2015-Jul-29 09:33N 34°37' E 135°13'7 7.4
2015-Jul-29 08:33N 34°43' E 135°18'0 0.0
2015-Jul-29 07:33N 34°43' E 135°18'0 0.0
2015-Jul-29 06:33N 34°43' E 135°18'0 0.0
2015-Jul-29 05:21N 34°43' E 135°18'0 0.0
2015-Jul-29 04:09N 34°43' E 135°18'0 0.0
2015-Jul-29 03:33N 34°43' E 135°18'0 0.0
2015-Jul-29 02:33N 34°43' E 135°18'0 0.0
2015-Jul-29 01:33N 34°43' E 135°18'0 0.0
2015-Jul-29 00:33N 34°43' E 135°18'0 0.0
2015-Jul-28 23:33N 34°43' E 135°18'0 0.0
2015-Jul-28 22:21N 34°43' E 135°18'0 0.0
2015-Jul-28 21:27N 34°43' E 135°18'0 0.0
2015-Jul-28 20:21N 34°43' E 135°18'0 0.0
2015-Jul-28 19:33N 34°43' E 135°18'0 0.0
2015-Jul-28 18:33N 34°43' E 135°18'0 0.0
2015-Jul-28 17:33N 34°43' E 135°18'0 0.0
2015-Jul-28 16:33N 34°43' E 135°18'0 0.0
2015-Jul-28 15:33N 34°43' E 135°18'0 0.0
2015-Jul-28 14:33N 34°43' E 135°18'0 0.0
2015-Jul-28 13:33N 34°43' E 135°18'0 0.0
2015-Jul-28 12:33N 34°43' E 135°18'0 0.0
2015-Jul-28 11:33N 34°43' E 135°18'0 0.0
2015-Jul-28 10:33N 34°43' E 135°18'0 0.0
2015-Jul-28 09:27N 34°43' E 135°18'0 0.0
2015-Jul-28 08:33N 34°43' E 135°18'0 0.0
2015-Jul-28 07:27N 34°43' E 135°18'0 0.0
2015-Jul-28 06:33N 34°43' E 135°18'0 0.0
2015-Jul-28 05:33N 34°43' E 135°18'0 0.0
2015-Jul-28 04:33N 34°43' E 135°18'0 0.0
2015-Jul-28 03:33N 34°43' E 135°18'0 0.0
2015-Jul-28 02:33N 34°43' E 135°18'1 1.2
2015-Jul-28 01:33N 34°42' E 135°18'6 6.3
2015-Jul-28 00:33N 34°39' E 135°25'1 0.5
2015-Jul-27 22:33N 34°39' E 135°26'3 2.6
2015-Jul-27 21:23N 34°37' E 135°23'0 0.0
2015-Jul-27 20:23N 34°37' E 135°23'0 0.0
2015-Jul-27 19:29N 34°37' E 135°23'0 0.0
2015-Jul-27 17:29N 34°37' E 135°23'0 0.0
2015-Jul-27 16:23N 34°37' E 135°23'0 0.0
2015-Jul-27 15:23N 34°37' E 135°23'0 0.0
2015-Jul-27 14:29N 34°37' E 135°23'0 0.1
2015-Jul-27 13:29N 34°37' E 135°23'0 0.0
2015-Jul-27 12:29N 34°37' E 135°23'0 0.1
2015-Jul-27 11:32N 34°37' E 135°23'1010.3
2015-Jul-27 10:33N 34°30' E 135°14'1211.6
2015-Jul-27 09:33N 34°22' E 135°04'1010.4
2015-Jul-27 08:33N 34°12' E 135°00'  
2015-Jul-22 04:16N 34°58' E 140°07'3810.2
2015-Jul-22 00:33N 35°25' E 140°40'2010.2
2015-Jul-21 22:33N 35°42' E 140°54'1510.6
2015-Jul-21 21:09N 35°55' E 140°46'3 5.1
2015-Jul-21 20:28N 35°56' E 140°42'2 0.1
2015-Jul-20 18:15N 35°56' E 140°40'2 2.2
2015-Jul-20 17:33N 35°56' E 140°42'3 3.2
2015-Jul-20 16:33N 35°56' E 140°46'3310.6
2015-Jul-20 13:24N 35°23' E 140°38'2612.4
2015-Jul-20 11:18N 35°03' E 140°17'1011.8
2015-Jul-20 10:29N 34°58' E 140°07'20 9.7
2015-Jul-20 08:26N 34°60' E 139°43'1011.5
2015-Jul-20 07:33N 35°09' E 139°46'1110.8
2015-Jul-20 06:33N 35°20' E 139°43'1110.9
2015-Jul-20 05:33N 35°29' E 139°50'1212.4
2015-Jul-20 04:34N 35°34' E 140°04'2 2.3
2015-Jul-20 03:33N 35°33' E 140°07'0 0.0
2015-Jul-20 02:33N 35°33' E 140°07'0 0.0
2015-Jul-20 01:33N 35°33' E 140°07'0 0.0
2015-Jul-20 00:33N 35°33' E 140°07'7 7.1
2015-Jul-19 23:33N 35°37' E 139°60'4 3.6
2015-Jul-19 22:34N 35°40' E 139°57'3 2.7
2015-Jul-19 21:29N 35°37' E 139°58'0 0.1
2015-Jul-19 20:23N 35°37' E 139°58'0 0.0
2015-Jul-19 19:23N 35°37' E 139°58'0 0.0
2015-Jul-19 18:17N 35°37' E 139°58'0 0.0
2015-Jul-19 17:17N 35°37' E 139°58'0 0.0
2015-Jul-19 16:23N 35°37' E 139°58'0 0.0
2015-Jul-19 15:23N 35°37' E 139°58'4 4.4
2015-Jul-19 14:33N 35°34' E 139°56'1110.8
2015-Jul-19 13:34N 35°26' E 139°48'9 9.2
2015-Jul-19 12:33N 35°16' E 139°46'1010.4
2015-Jul-19 11:33N 35°06' E 139°45'  
Track history (hours):
 
Tides and Currents Weather Stations Pressure Air Temp Water Temp Dewpoint Dewpoint Depression Visibility Wind Speed Wind Dir Waves Ship Positions

Hayase Maru

Last reported at 2015-Jul-29 10:33 UTC. Time now 2015-Jul-31 11:25 UTC.
Position N 34°37' E 134°57'.

Length 73 m; draft 4 m.

Type: Ship. MMSI: 431000395.

Date/timePositionNaut miles runAvg speedWind from/ knotsBaromVisibWave heightAir tempDewpointWater temp
2015-Jul-29 10:33N 34°37' E 134°57'1313.4
2015-Jul-29 09:33N 34°37' E 135°13'7 7.4
2015-Jul-29 08:33N 34°43' E 135°18'0 0.0
2015-Jul-29 07:33N 34°43' E 135°18'0 0.0
2015-Jul-29 06:33N 34°43' E 135°18'0 0.0
2015-Jul-29 05:21N 34°43' E 135°18'0 0.0
2015-Jul-29 04:09N 34°43' E 135°18'0 0.0
2015-Jul-29 03:33N 34°43' E 135°18'0 0.0
2015-Jul-29 02:33N 34°43' E 135°18'0 0.0
2015-Jul-29 01:33N 34°43' E 135°18'0 0.0
2015-Jul-29 00:33N 34°43' E 135°18'0 0.0
2015-Jul-28 23:33N 34°43' E 135°18'0 0.0
2015-Jul-28 22:21N 34°43' E 135°18'0 0.0
2015-Jul-28 21:27N 34°43' E 135°18'0 0.0
2015-Jul-28 20:21N 34°43' E 135°18'0 0.0
2015-Jul-28 19:33N 34°43' E 135°18'0 0.0
2015-Jul-28 18:33N 34°43' E 135°18'0 0.0
2015-Jul-28 17:33N 34°43' E 135°18'0 0.0
2015-Jul-28 16:33N 34°43' E 135°18'0 0.0
2015-Jul-28 15:33N 34°43' E 135°18'0 0.0
2015-Jul-28 14:33N 34°43' E 135°18'0 0.0
2015-Jul-28 13:33N 34°43' E 135°18'0 0.0
2015-Jul-28 12:33N 34°43' E 135°18'0 0.0
2015-Jul-28 11:33N 34°43' E 135°18'0 0.0
2015-Jul-28 10:33N 34°43' E 135°18'0 0.0
2015-Jul-28 09:27N 34°43' E 135°18'0 0.0
2015-Jul-28 08:33N 34°43' E 135°18'0 0.0
2015-Jul-28 07:27N 34°43' E 135°18'0 0.0
2015-Jul-28 06:33N 34°43' E 135°18'0 0.0
2015-Jul-28 05:33N 34°43' E 135°18'0 0.0
2015-Jul-28 04:33N 34°43' E 135°18'0 0.0
2015-Jul-28 03:33N 34°43' E 135°18'0 0.0
2015-Jul-28 02:33N 34°43' E 135°18'1 1.2
2015-Jul-28 01:33N 34°42' E 135°18'6 6.3
2015-Jul-28 00:33N 34°39' E 135°25'1 0.5
2015-Jul-27 22:33N 34°39' E 135°26'3 2.6
2015-Jul-27 21:23N 34°37' E 135°23'0 0.0
2015-Jul-27 20:23N 34°37' E 135°23'0 0.0
2015-Jul-27 19:29N 34°37' E 135°23'0 0.0
2015-Jul-27 17:29N 34°37' E 135°23'0 0.0
2015-Jul-27 16:23N 34°37' E 135°23'0 0.0
2015-Jul-27 15:23N 34°37' E 135°23'0 0.0
2015-Jul-27 14:29N 34°37' E 135°23'0 0.1
2015-Jul-27 13:29N 34°37' E 135°23'0 0.0
2015-Jul-27 12:29N 34°37' E 135°23'0 0.1
2015-Jul-27 11:32N 34°37' E 135°23'1010.3
2015-Jul-27 10:33N 34°30' E 135°14'1211.6
2015-Jul-27 09:33N 34°22' E 135°04'1010.4
2015-Jul-27 08:33N 34°12' E 135°00'  
2015-Jul-22 04:16N 34°58' E 140°07'3810.2
2015-Jul-22 00:33N 35°25' E 140°40'2010.2
2015-Jul-21 22:33N 35°42' E 140°54'1510.6
2015-Jul-21 21:09N 35°55' E 140°46'3 5.1
2015-Jul-21 20:28N 35°56' E 140°42'2 0.1
2015-Jul-20 18:15N 35°56' E 140°40'2 2.2
2015-Jul-20 17:33N 35°56' E 140°42'3 3.2
2015-Jul-20 16:33N 35°56' E 140°46'3310.6
2015-Jul-20 13:24N 35°23' E 140°38'2612.4
2015-Jul-20 11:18N 35°03' E 140°17'1011.8
2015-Jul-20 10:29N 34°58' E 140°07'20 9.7
2015-Jul-20 08:26N 34°60' E 139°43'1011.5
2015-Jul-20 07:33N 35°09' E 139°46'1110.8
2015-Jul-20 06:33N 35°20' E 139°43'1110.9
2015-Jul-20 05:33N 35°29' E 139°50'1212.4
2015-Jul-20 04:34N 35°34' E 140°04'2 2.3
2015-Jul-20 03:33N 35°33' E 140°07'0 0.0
2015-Jul-20 02:33N 35°33' E 140°07'0 0.0
2015-Jul-20 01:33N 35°33' E 140°07'0 0.0
2015-Jul-20 00:33N 35°33' E 140°07'7 7.1
2015-Jul-19 23:33N 35°37' E 139°60'4 3.6
2015-Jul-19 22:34N 35°40' E 139°57'3 2.7
2015-Jul-19 21:29N 35°37' E 139°58'0 0.1
2015-Jul-19 20:23N 35°37' E 139°58'0 0.0
2015-Jul-19 19:23N 35°37' E 139°58'0 0.0
2015-Jul-19 18:17N 35°37' E 139°58'0 0.0
2015-Jul-19 17:17N 35°37' E 139°58'0 0.0
2015-Jul-19 16:23N 35°37' E 139°58'0 0.0
2015-Jul-19 15:23N 35°37' E 139°58'4 4.4
2015-Jul-19 14:33N 35°34' E 139°56'1110.8
2015-Jul-19 13:34N 35°26' E 139°48'9 9.2
2015-Jul-19 12:33N 35°16' E 139°46'1010.4
2015-Jul-19 11:33N 35°06' E 139°45'  

Dump ship's entire track history